createdAt,value
2023-02-19T00:03:13.403Z,2.22
2023-02-19T00:08:15.918Z,1.80
2023-02-19T00:13:19.047Z,1.80
2023-02-19T00:18:21.578Z,1.70
2023-02-19T00:23:24.560Z,1.50
2023-02-19T00:28:27.119Z,2.10
2023-02-19T00:33:29.681Z,1.67
2023-02-19T00:38:36.349Z,1.80
2023-02-19T00:43:38.897Z,1.17
2023-02-19T00:48:41.447Z,1.75
2023-02-19T00:53:44.469Z,1.50
2023-02-19T00:58:48.425Z,1.63
2023-02-19T01:03:51.218Z,1.90
2023-02-19T01:08:54.174Z,1.77
2023-02-19T01:14:02.111Z,2.05
2023-02-19T01:19:04.702Z,1.85
2023-02-19T01:24:07.850Z,1.23
2023-02-19T01:29:10.768Z,1.25
2023-02-19T01:34:13.425Z,1.20
2023-02-19T01:39:16.275Z,2.20
2023-02-19T01:44:19.499Z,1.40
2023-02-19T01:49:29.148Z,1.10
2023-02-19T01:54:35.534Z,1.23
2023-02-19T01:59:38.411Z,1.42
2023-02-19T02:04:41.055Z,1.67
2023-02-19T02:10:02.256Z,1.83
2023-02-19T02:15:05.672Z,1.15
2023-02-19T02:20:27.942Z,1.20
2023-02-19T02:25:43.929Z,1.10
2023-02-19T02:31:17.974Z,1.02
2023-02-19T02:36:24.249Z,0.75
2023-02-19T02:41:27.286Z,0.40
2023-02-19T02:46:35.841Z,1.00
2023-02-19T02:51:49.290Z,0.70
2023-02-19T02:56:58.253Z,0.70
2023-02-19T03:02:14.743Z,0.80
2023-02-19T03:07:18.132Z,0.90
2023-02-19T03:12:40.811Z,0.52
2023-02-19T03:18:10.680Z,1.17
2023-02-19T03:23:14.903Z,1.50
2023-02-19T03:28:43.438Z,0.82
2023-02-19T03:33:51.294Z,0.60
2023-02-19T03:39:06.427Z,0.55
2023-02-19T03:44:28.966Z,0.70
2023-02-19T03:49:50.013Z,1.00
2023-02-19T03:55:20.332Z,0.75
2023-02-19T04:00:32.119Z,0.40
2023-02-19T04:05:41.953Z,0.60
2023-02-19T04:10:47.391Z,0.68
2023-02-19T04:15:53.275Z,1.75
2023-02-19T04:20:57.483Z,0.80
2023-02-19T04:26:01.514Z,1.92
2023-02-19T04:31:04.251Z,0.60
2023-02-19T04:36:10.910Z,0.57
2023-02-19T04:41:13.589Z,0.60
2023-02-19T04:46:16.396Z,0.82
2023-02-19T04:51:18.960Z,1.00
2023-02-19T04:56:21.476Z,0.95
2023-02-19T05:01:24.993Z,0.52
2023-02-19T05:06:27.679Z,1.20
2023-02-19T05:11:30.342Z,0.90
2023-02-19T05:16:33.362Z,1.40
2023-02-19T05:21:35.936Z,0.60
2023-02-19T05:26:38.595Z,0.60
2023-02-19T05:31:41.531Z,0.57
2023-02-19T05:36:45.254Z,0.65
2023-02-19T05:41:49.133Z,0.90
2023-02-19T05:46:51.668Z,0.40
2023-02-19T05:51:54.268Z,0.60
2023-02-19T05:56:57.598Z,0.98
2023-02-19T06:02:00.122Z,1.10
2023-02-19T06:07:02.623Z,1.02
2023-02-19T06:12:05.547Z,0.68
2023-02-19T06:17:08.096Z,0.95
2023-02-19T06:22:10.989Z,0.60
2023-02-19T06:27:13.562Z,1.02
2023-02-19T06:32:16.544Z,0.60
2023-02-19T06:37:19.150Z,0.63
2023-02-19T06:42:21.786Z,0.45
2023-02-19T06:47:25.469Z,0.70
2023-02-19T06:52:34.532Z,1.48
2023-02-19T06:57:41.655Z,0.57
2023-02-19T07:03:03.879Z,0.80
2023-02-19T07:08:32.694Z,0.70
2023-02-19T07:13:38.922Z,0.70
2023-02-19T07:19:22.645Z,0.50
2023-02-19T07:51:44.421Z,0.68
2023-02-19T07:56:47.058Z,1.05
2023-02-19T08:08:08.152Z,0.98
2023-02-19T08:13:38.838Z,0.57
2023-02-19T08:18:47.824Z,0.50
2023-02-19T08:29:09.105Z,1.05
2023-02-19T08:34:33.630Z,1.23
2023-02-19T08:39:36.476Z,0.50
2023-02-19T08:44:39.181Z,1.00
2023-02-19T08:49:42.437Z,0.90
2023-02-19T08:54:47.283Z,1.10
2023-02-19T09:00:03.850Z,0.57
2023-02-19T09:05:06.727Z,1.08
2023-02-19T09:10:35.108Z,0.85
2023-02-19T09:15:42.417Z,1.08
2023-02-19T09:31:35.350Z,1.30
2023-02-19T09:36:41.470Z,1.08
2023-02-19T09:42:29.761Z,0.60
2023-02-19T09:55:39.494Z,2.10
2023-02-19T10:01:10.970Z,0.93
2023-02-19T10:14:09.628Z,1.00
2023-02-19T10:26:43.663Z,1.40
2023-02-19T10:31:47.580Z,4.53
2023-02-19T10:36:53.830Z,2.50
2023-02-19T10:42:20.984Z,1.83
2023-02-19T10:47:27.246Z,1.55
2023-02-19T10:52:35.719Z,1.30
2023-02-19T10:57:39.833Z,1.50
2023-02-19T11:17:04.206Z,1.42
2023-02-19T11:23:10.553Z,1.23
2023-02-19T11:43:16.610Z,1.83
2023-02-19T11:50:05.260Z,2.08
2023-02-19T11:56:11.741Z,1.65
2023-02-19T12:02:35.409Z,1.95
2023-02-19T12:22:36.263Z,1.23
2023-02-19T12:28:38.328Z,2.97
2023-02-19T12:34:17.890Z,1.88
2023-02-19T12:42:11.234Z,3.00
2023-02-19T12:48:48.917Z,1.90
2023-02-19T12:54:06.252Z,1.98
2023-02-19T12:59:44.621Z,2.53
2023-02-19T13:05:13.820Z,2.30
2023-02-19T13:24:44.096Z,2.45
2023-02-19T13:30:16.650Z,3.20
2023-02-19T13:35:46.125Z,2.15
2023-02-19T13:40:59.195Z,2.35
2023-02-19T13:46:16.578Z,2.33
2023-02-19T13:51:20.990Z,2.25
2023-02-19T14:01:58.813Z,2.15
2023-02-19T14:07:21.206Z,1.60
2023-02-19T14:12:37.338Z,3.13
2023-02-19T14:17:44.309Z,2.10
2023-02-19T14:22:47.898Z,2.83
2023-02-19T14:27:54.678Z,1.90
2023-02-19T14:33:10.240Z,2.88
2023-02-19T14:38:25.851Z,3.20
2023-02-19T14:43:30.619Z,2.33
2023-02-19T14:48:44.041Z,2.28
2023-02-19T14:53:48.322Z,1.80
2023-02-19T14:59:13.155Z,2.90
2023-02-19T15:04:31.859Z,3.00
2023-02-19T15:09:40.527Z,5.95
2023-02-19T15:14:44.810Z,3.13
2023-02-19T15:20:17.436Z,3.80
2023-02-19T15:25:24.181Z,3.47
2023-02-19T15:30:31.512Z,4.22
2023-02-19T15:35:35.024Z,5.20
2023-02-19T15:40:37.820Z,4.70
2023-02-19T15:45:50.721Z,4.70
2023-02-19T15:51:21.377Z,8.18
2023-02-19T15:56:40.210Z,6.45
2023-02-19T16:01:44.196Z,5.68
2023-02-19T16:07:13.146Z,7.40
2023-02-19T16:12:27.446Z,6.22
2023-02-19T16:17:36.633Z,12.32
2023-02-19T16:23:05.509Z,9.00
2023-02-19T16:28:23.585Z,6.47
2023-02-19T16:34:08.318Z,5.63
2023-02-19T16:39:17.185Z,6.55
2023-02-19T16:44:37.852Z,5.28
2023-02-19T16:55:14.494Z,4.90
2023-02-19T17:00:19.232Z,5.85
2023-02-19T17:05:39.028Z,5.70
2023-02-19T17:16:29.109Z,8.00
2023-02-19T17:21:41.090Z,7.10
2023-02-19T17:26:44.127Z,5.80
2023-02-19T17:32:09.972Z,5.53
2023-02-19T17:37:12.627Z,5.55
2023-02-19T17:42:15.173Z,6.25
2023-02-19T17:47:17.726Z,6.80
2023-02-19T17:52:20.294Z,7.65
2023-02-19T18:02:39.493Z,6.35
2023-02-19T18:07:42.263Z,6.55
2023-02-19T18:13:00.651Z,6.68
2023-02-19T18:18:09.903Z,5.53
2023-02-19T18:23:12.509Z,6.03
2023-02-19T18:28:15.683Z,6.10
2023-02-19T18:33:18.339Z,5.80
2023-02-19T18:38:21.316Z,6.40
2023-02-19T18:44:16.513Z,7.95
2023-02-19T18:49:19.381Z,8.07
2023-02-19T18:54:40.254Z,6.80
2023-02-19T19:05:13.364Z,7.40
2023-02-19T19:10:15.977Z,8.48
2023-02-19T19:15:19.353Z,10.18
2023-02-19T19:20:25.249Z,10.23
2023-02-19T19:25:39.341Z,8.80
2023-02-19T19:30:42.071Z,8.63
2023-02-19T19:36:09.190Z,11.50
2023-02-19T19:41:16.690Z,8.00
2023-02-19T19:46:20.551Z,7.57
2023-02-19T19:51:29.033Z,6.87
2023-02-19T19:56:49.764Z,6.65
2023-02-19T20:02:20.855Z,10.32
2023-02-19T20:07:23.559Z,11.45
2023-02-19T20:12:41.522Z,9.13
2023-02-19T20:18:12.145Z,8.50
2023-02-19T20:23:14.926Z,10.13
2023-02-19T20:28:17.547Z,10.18
2023-02-19T20:33:20.139Z,9.85
2023-02-19T20:38:22.775Z,10.38
2023-02-19T20:43:27.859Z,9.82
2023-02-19T20:48:39.977Z,9.38
2023-02-19T20:53:43.604Z,8.27
2023-02-19T20:58:47.404Z,8.98
2023-02-19T21:04:09.634Z,9.82
2023-02-19T21:09:12.555Z,8.25
2023-02-19T21:14:16.182Z,8.27
2023-02-19T21:19:18.808Z,7.82
2023-02-19T21:24:21.537Z,8.82
2023-02-19T21:29:24.488Z,8.90
2023-02-19T21:35:01.929Z,7.55
2023-02-19T21:40:13.106Z,8.10
2023-02-19T21:45:15.806Z,9.57
2023-02-19T21:50:22.780Z,7.90
2023-02-19T21:55:25.531Z,7.43
2023-02-19T22:01:12.052Z,10.05
2023-02-19T22:06:17.880Z,7.53
2023-02-19T22:11:20.876Z,7.47
2023-02-19T22:16:24.307Z,8.18
2023-02-19T22:21:45.065Z,8.25
2023-02-19T22:27:20.445Z,8.35
2023-02-19T22:32:23.384Z,7.80
2023-02-19T22:37:26.491Z,7.50
2023-02-19T22:42:29.599Z,7.95
2023-02-19T22:48:11.613Z,7.80
2023-02-19T22:53:15.685Z,8.55
2023-02-19T22:58:19.542Z,7.78
2023-02-19T23:03:22.287Z,7.87
2023-02-19T23:08:25.039Z,8.27
2023-02-19T23:13:27.672Z,7.90
2023-02-19T23:18:44.182Z,7.50
2023-02-19T23:23:48.216Z,8.20
2023-02-19T23:29:44.046Z,7.57
2023-02-19T23:34:48.294Z,6.93
2023-02-19T23:40:41.797Z,7.00
2023-02-19T23:45:45.132Z,6.88
2023-02-19T23:50:47.844Z,7.50
2023-02-19T23:56:11.349Z,7.78
